createdAt,value
2023-05-21T00:00:02.090Z,12.3
2023-05-21T00:01:01.691Z,12.3
2023-05-21T00:02:01.262Z,12.2
2023-05-21T00:03:01.912Z,12.3
2023-05-21T00:04:01.559Z,12.3
2023-05-21T00:05:02.117Z,12.3
2023-05-21T00:06:01.796Z,12.3
2023-05-21T00:07:01.303Z,12.3
2023-05-21T00:08:01.877Z,12.2
2023-05-21T00:09:01.499Z,12.3
2023-05-21T00:10:02.073Z,12.3
2023-05-21T00:11:01.661Z,12.3
2023-05-21T00:12:01.251Z,12.3
2023-05-21T00:13:01.828Z,12.4
2023-05-21T00:14:01.426Z,12.3
2023-05-21T00:15:02.014Z,12.3
2023-05-21T00:16:01.628Z,12.3
2023-05-21T00:17:01.198Z,12.3
2023-05-21T00:18:01.800Z,12.3
2023-05-21T00:19:01.511Z,12.3
2023-05-21T00:20:01.987Z,12.2
2023-05-21T00:21:01.613Z,12.2
2023-05-21T00:22:02.178Z,12.2
2023-05-21T00:23:01.768Z,12.2
2023-05-21T00:24:01.361Z,12.2
2023-05-21T00:25:01.942Z,12.2
2023-05-21T00:26:01.530Z,12.2
2023-05-21T00:27:02.130Z,12.2
2023-05-21T00:28:01.757Z,12.2
2023-05-21T00:29:01.332Z,12.2
2023-05-21T00:30:01.931Z,12.2
2023-05-21T00:31:01.526Z,12.1
2023-05-21T00:32:02.163Z,12.3
2023-05-21T00:33:01.849Z,12.2
2023-05-21T00:34:01.332Z,12.2
2023-05-21T00:35:01.911Z,12.2
2023-05-21T00:36:01.497Z,12.3
2023-05-21T00:37:02.095Z,12.3
2023-05-21T00:38:01.704Z,12.3
2023-05-21T00:39:01.268Z,12.3
2023-05-21T00:40:01.846Z,12.3
2023-05-21T00:41:01.428Z,12.3
2023-05-21T00:42:02.021Z,12.3
2023-05-21T00:43:01.651Z,12.3
2023-05-21T00:44:01.190Z,12.3
2023-05-21T00:45:01.779Z,12.3
2023-05-21T00:46:01.408Z,12.3
2023-05-21T00:47:01.957Z,12.3
2023-05-21T00:48:01.610Z,12.3
2023-05-21T00:49:02.122Z,12.2
2023-05-21T00:50:01.713Z,12.2
2023-05-21T00:51:01.295Z,12.3
2023-05-21T00:52:01.923Z,12.2
2023-05-21T00:53:01.567Z,12.3
2023-05-21T00:54:02.090Z,12.3
2023-05-21T00:55:01.672Z,12.2
2023-05-21T00:56:01.248Z,12.1
2023-05-21T00:57:01.833Z,12.2
2023-05-21T00:58:01.475Z,12.2
2023-05-21T00:59:01.989Z,12.2
2023-05-21T01:00:01.577Z,12.2
2023-05-21T01:01:02.168Z,12.2
2023-05-21T01:02:01.797Z,12.2
2023-05-21T01:03:01.467Z,12.1
2023-05-21T01:04:02.021Z,12.1
2023-05-21T01:05:01.610Z,12.1
2023-05-21T01:06:01.179Z,12.1
2023-05-21T01:07:01.761Z,12.1
2023-05-21T01:08:01.364Z,12.1
2023-05-21T01:09:03.346Z,12.1
2023-05-21T01:10:01.472Z,12
2023-05-21T01:11:02.059Z,12
2023-05-21T01:12:01.636Z,12
2023-05-21T01:13:01.220Z,12
2023-05-21T01:14:01.826Z,12
2023-05-21T01:15:01.406Z,12
2023-05-21T01:16:02.004Z,12
2023-05-21T01:17:01.644Z,12
2023-05-21T01:18:02.219Z,12
2023-05-21T01:19:01.985Z,12
2023-05-21T01:20:01.410Z,12
2023-05-21T01:21:01.983Z,12
2023-05-21T01:22:01.577Z,11.9
2023-05-21T01:23:02.154Z,11.9
2023-05-21T01:24:01.765Z,11.9
2023-05-21T01:25:01.372Z,12
2023-05-21T01:26:01.931Z,11.9
2023-05-21T01:27:01.519Z,11.9
2023-05-21T01:28:02.100Z,11.9
2023-05-21T01:29:01.699Z,11.9
2023-05-21T01:30:01.284Z,11.9
2023-05-21T01:31:01.868Z,11.9
2023-05-21T01:32:01.494Z,11.9
2023-05-21T01:33:02.093Z,11.9
2023-05-21T01:34:01.762Z,11.9
2023-05-21T01:35:01.287Z,11.9
2023-05-21T01:36:01.830Z,11.9
2023-05-21T01:37:01.462Z,11.9
2023-05-21T01:38:02.015Z,11.8
2023-05-21T01:39:01.616Z,11.9
2023-05-21T01:40:01.274Z,11.9
2023-05-21T01:41:01.789Z,11.9
2023-05-21T01:42:01.379Z,11.9
2023-05-21T01:43:01.956Z,11.9
2023-05-21T01:44:01.549Z,11.9
2023-05-21T01:45:02.129Z,11.9
2023-05-21T01:46:01.725Z,11.9
2023-05-21T01:47:01.344Z,11.8
2023-05-21T01:48:01.974Z,11.8
2023-05-21T01:49:01.578Z,11.8
2023-05-21T01:50:02.167Z,11.8
2023-05-21T01:51:01.785Z,11.8
2023-05-21T01:52:01.389Z,11.8
2023-05-21T01:53:01.970Z,11.8
2023-05-21T01:54:01.563Z,11.8
2023-05-21T01:55:02.145Z,11.8
2023-05-21T01:56:01.741Z,11.8
2023-05-21T01:57:01.366Z,11.8
2023-05-21T01:58:02.611Z,11.8
2023-05-21T01:59:01.299Z,11.8
2023-05-21T02:00:01.881Z,11.8
2023-05-21T02:01:01.466Z,11.9
2023-05-21T02:02:02.131Z,11.9
2023-05-21T02:03:01.734Z,11.8
2023-05-21T02:04:01.329Z,11.8
2023-05-21T02:05:01.857Z,11.8
2023-05-21T02:06:01.449Z,11.8
2023-05-21T02:07:02.013Z,11.8
2023-05-21T02:08:01.619Z,11.8
2023-05-21T02:09:02.179Z,11.8
2023-05-21T02:10:01.839Z,11.8
2023-05-21T02:11:01.422Z,11.8
2023-05-21T02:12:02.007Z,11.8
2023-05-21T02:13:01.651Z,11.8
2023-05-21T02:14:01.192Z,11.8
2023-05-21T02:15:01.772Z,11.8
2023-05-21T02:16:01.385Z,11.8
2023-05-21T02:17:01.941Z,11.8
2023-05-21T02:18:01.575Z,11.8
2023-05-21T02:19:02.146Z,11.8
2023-05-21T02:20:01.869Z,11.8
2023-05-21T02:21:01.324Z,11.8
2023-05-21T02:22:01.909Z,11.7
2023-05-21T02:23:01.500Z,11.8
2023-05-21T02:24:02.097Z,11.8
2023-05-21T02:25:01.682Z,11.8
2023-05-21T02:26:01.267Z,11.8
2023-05-21T02:27:01.839Z,11.8
2023-05-21T02:28:01.430Z,11.8
2023-05-21T02:29:02.069Z,11.8
2023-05-21T02:30:01.659Z,11.8
2023-05-21T02:31:01.228Z,11.8
2023-05-21T02:32:01.809Z,11.8
2023-05-21T02:33:01.449Z,11.8
2023-05-21T02:34:02.109Z,11.8
2023-05-21T02:35:01.688Z,11.8
2023-05-21T02:36:01.262Z,11.8
2023-05-21T02:37:01.875Z,11.8
2023-05-21T02:38:01.488Z,11.8
2023-05-21T02:39:02.072Z,11.8
2023-05-21T02:40:01.681Z,11.7
2023-05-21T02:41:01.249Z,11.7
2023-05-21T02:42:01.827Z,11.7
2023-05-21T02:43:01.415Z,11.7
2023-05-21T02:44:01.994Z,11.8
2023-05-21T02:45:01.619Z,11.7
2023-05-21T02:46:02.163Z,11.7
2023-05-21T02:47:01.774Z,11.7
2023-05-21T02:48:01.397Z,11.7
2023-05-21T02:49:01.948Z,11.7
2023-05-21T02:50:01.568Z,11.7
2023-05-21T02:51:02.182Z,11.7
2023-05-21T02:52:01.805Z,11.7
2023-05-21T02:53:01.346Z,11.7
2023-05-21T02:54:01.943Z,11.7
2023-05-21T02:55:01.563Z,11.7
2023-05-21T02:56:02.111Z,11.8
2023-05-21T02:57:01.704Z,11.7
2023-05-21T02:58:01.312Z,11.7
2023-05-21T02:59:01.861Z,11.7
2023-05-21T03:00:01.480Z,11.7
2023-05-21T03:01:02.066Z,11.7
2023-05-21T03:02:01.720Z,11.6
2023-05-21T03:03:01.314Z,11.7
2023-05-21T03:04:01.825Z,11.7
2023-05-21T03:05:01.429Z,11.7
2023-05-21T03:06:02.009Z,11.6
2023-05-21T03:07:01.594Z,11.6
2023-05-21T03:08:02.173Z,11.7
2023-05-21T03:09:01.770Z,11.7
2023-05-21T03:10:01.363Z,11.7
2023-05-21T03:11:01.975Z,11.7
2023-05-21T03:12:01.566Z,11.6
2023-05-21T03:13:02.214Z,11.6
2023-05-21T03:14:01.809Z,11.6
2023-05-21T03:15:01.381Z,11.6
2023-05-21T03:16:02.215Z,11.6
2023-05-21T03:17:01.658Z,11.6
2023-05-21T03:18:02.207Z,11.6
2023-05-21T03:19:01.843Z,11.6
2023-05-21T03:20:01.496Z,11.6
2023-05-21T03:21:02.009Z,11.5
2023-05-21T03:22:01.636Z,11.5
2023-05-21T03:23:02.175Z,11.5
2023-05-21T03:24:01.759Z,11.5
2023-05-21T03:25:01.384Z,11.6
2023-05-21T03:26:01.933Z,11.5
2023-05-21T03:27:01.523Z,11.5
2023-05-21T03:28:02.090Z,11.5
2023-05-21T03:29:01.693Z,11.5
2023-05-21T03:30:01.256Z,11.5
2023-05-21T03:31:01.826Z,11.5
2023-05-21T03:32:01.506Z,11.5
2023-05-21T03:33:02.036Z,11.5
2023-05-21T03:34:01.658Z,11.5
2023-05-21T03:35:01.208Z,11.6
2023-05-21T03:36:01.796Z,11.6
2023-05-21T03:37:01.382Z,11.6
2023-05-21T03:38:01.958Z,11.6
2023-05-21T03:39:01.549Z,11.6
2023-05-21T03:40:02.139Z,11.6
2023-05-21T03:41:01.743Z,11.6
2023-05-21T03:42:01.328Z,11.6
2023-05-21T03:43:01.903Z,11.6
2023-05-21T03:44:01.483Z,11.6
2023-05-21T03:45:02.060Z,11.6
2023-05-21T03:46:01.681Z,11.6
2023-05-21T03:47:01.267Z,11.6
2023-05-21T03:48:01.832Z,11.6
2023-05-21T03:49:01.485Z,11.6
2023-05-21T03:50:02.020Z,11.7
2023-05-21T03:51:01.618Z,11.7
2023-05-21T03:52:02.185Z,11.8
2023-05-21T03:53:01.787Z,11.7
2023-05-21T03:54:01.452Z,11.7
2023-05-21T03:55:01.942Z,11.7
2023-05-21T03:56:01.552Z,11.7
2023-05-21T03:57:02.110Z,11.7
2023-05-21T03:58:01.705Z,11.8
2023-05-21T03:59:01.316Z,11.8
2023-05-21T04:00:01.861Z,11.8
2023-05-21T04:01:01.488Z,11.8
2023-05-21T04:02:02.028Z,11.8
2023-05-21T04:03:01.699Z,11.8
2023-05-21T04:04:01.287Z,11.8
2023-05-21T04:05:01.856Z,11.9
2023-05-21T04:06:01.465Z,11.9
2023-05-21T04:07:02.024Z,11.9
2023-05-21T04:08:01.623Z,11.9
2023-05-21T04:09:01.201Z,11.9
2023-05-21T04:10:01.774Z,11.9
2023-05-21T04:11:01.367Z,11.9
2023-05-21T04:12:01.953Z,11.9
2023-05-21T04:13:01.556Z,11.9
2023-05-21T04:14:02.139Z,11.9
2023-05-21T04:15:01.727Z,11.9
2023-05-21T04:16:01.361Z,11.8
2023-05-21T04:17:01.936Z,11.9
2023-05-21T04:18:01.558Z,11.9
2023-05-21T04:19:02.105Z,12
2023-05-21T04:20:01.713Z,12
2023-05-21T04:21:01.735Z,12
2023-05-21T04:22:01.902Z,12
2023-05-21T04:23:01.500Z,12
2023-05-21T04:24:02.088Z,12
2023-05-21T04:25:01.684Z,12
2023-05-21T04:26:01.280Z,12
2023-05-21T04:27:01.865Z,12
2023-05-21T04:28:01.461Z,12.1
2023-05-21T04:29:02.018Z,12.1
2023-05-21T04:30:01.595Z,12.1
2023-05-21T04:31:02.198Z,12.2
2023-05-21T04:32:01.831Z,12.2
2023-05-21T04:33:01.454Z,12.1
2023-05-21T04:34:01.984Z,12.1
2023-05-21T04:35:01.571Z,12.1
2023-05-21T04:36:02.159Z,12.2
2023-05-21T04:37:01.788Z,12.2
2023-05-21T04:38:02.954Z,12.2
2023-05-21T04:39:01.913Z,12.2
2023-05-21T04:40:01.512Z,12.1
2023-05-21T04:41:02.072Z,12.1
2023-05-21T04:42:01.682Z,12.2
2023-05-21T04:43:01.238Z,12.2
2023-05-21T04:44:01.835Z,12.2
2023-05-21T04:45:01.438Z,12.3
2023-05-21T04:46:02.004Z,12.3
2023-05-21T04:47:01.666Z,12.3
2023-05-21T04:48:02.173Z,12.3
2023-05-21T04:49:01.801Z,12.3
2023-05-21T04:50:01.399Z,12.3
2023-05-21T04:51:01.986Z,12.4
2023-05-21T04:52:01.589Z,12.4
2023-05-21T04:53:02.190Z,12.4
2023-05-21T04:54:01.786Z,12.4
2023-05-21T04:55:01.417Z,12.4
2023-05-21T04:56:01.966Z,12.4
2023-05-21T04:57:01.547Z,12.4
2023-05-21T04:58:02.121Z,12.4
2023-05-21T04:59:02.806Z,12.4
2023-05-21T05:00:01.921Z,12.4
2023-05-21T05:01:01.523Z,12.5
2023-05-21T05:02:02.180Z,12.5
2023-05-21T05:03:01.811Z,12.5
2023-05-21T05:04:01.411Z,12.5
2023-05-21T05:05:01.965Z,12.6
2023-05-21T05:06:01.552Z,12.6
2023-05-21T05:07:02.141Z,12.6
2023-05-21T05:08:01.722Z,12.6
2023-05-21T05:09:01.351Z,12.7
2023-05-21T05:10:01.887Z,12.6
2023-05-21T05:11:01.465Z,12.6
2023-05-21T05:12:02.045Z,12.7
2023-05-21T05:13:01.635Z,12.7
2023-05-21T05:14:01.240Z,12.7
2023-05-21T05:15:01.795Z,12.7
2023-05-21T05:16:01.398Z,12.8
2023-05-21T05:17:02.049Z,12.8
2023-05-21T05:18:01.636Z,12.9
2023-05-21T05:19:02.247Z,12.9
2023-05-21T05:20:01.885Z,12.9
2023-05-21T05:21:01.443Z,12.9
2023-05-21T05:22:01.629Z,12.9
2023-05-21T05:23:01.216Z,13
2023-05-21T05:24:00.820Z,13
2023-05-21T05:25:01.545Z,13
2023-05-21T05:26:01.137Z,13
2023-05-21T05:27:00.721Z,13.1
2023-05-21T05:28:01.309Z,13.2
2023-05-21T05:29:00.903Z,13.3
2023-05-21T05:30:01.531Z,13.3
2023-05-21T05:31:01.146Z,13.4
2023-05-21T05:32:00.719Z,13.3
2023-05-21T05:33:01.313Z,13.3
2023-05-21T05:34:00.931Z,13.4
2023-05-21T05:35:02.477Z,13.4
2023-05-21T05:36:01.245Z,13.4
2023-05-21T05:37:00.733Z,13.4
2023-05-21T05:38:01.314Z,13.5
2023-05-21T05:39:00.937Z,13.4
2023-05-21T05:40:01.497Z,13.4
2023-05-21T05:41:01.111Z,13.4
2023-05-21T05:42:00.689Z,13.5
2023-05-21T05:43:01.252Z,13.5
2023-05-21T05:44:00.850Z,13.5
2023-05-21T05:45:01.418Z,13.5
2023-05-21T05:46:01.086Z,13.6
2023-05-21T05:47:01.603Z,13.6
2023-05-21T05:48:01.218Z,13.6
2023-05-21T05:49:00.828Z,13.6
2023-05-21T05:50:01.409Z,13.7
2023-05-21T05:51:01.003Z,13.7
2023-05-21T05:52:01.693Z,13.8
2023-05-21T05:53:01.273Z,13.8
2023-05-21T05:54:00.818Z,13.8
2023-05-21T05:55:01.395Z,13.8
2023-05-21T05:56:00.988Z,13.9
2023-05-21T05:57:01.711Z,13.8
2023-05-21T05:58:01.306Z,13.9
2023-05-21T05:59:00.845Z,13.8
2023-05-21T06:00:01.421Z,13.9
2023-05-21T06:01:01.080Z,13.9
2023-05-21T06:02:00.640Z,13.9
2023-05-21T06:03:01.273Z,14
2023-05-21T06:04:00.914Z,14.1
2023-05-21T06:05:01.486Z,14.1
2023-05-21T06:06:01.104Z,14
2023-05-21T06:07:00.732Z,14.1
2023-05-21T06:08:01.244Z,14.1
2023-05-21T06:09:00.833Z,14.1
2023-05-21T06:10:01.420Z,14.1
2023-05-21T06:11:01.011Z,14.2
2023-05-21T06:12:01.598Z,14.2
2023-05-21T06:13:01.321Z,14.2
2023-05-21T06:14:00.868Z,14.2
2023-05-21T06:15:01.441Z,14.3
2023-05-21T06:16:01.093Z,14.3
2023-05-21T06:17:01.604Z,14.3
2023-05-21T06:18:01.217Z,14.3
2023-05-21T06:19:00.845Z,14.3
2023-05-21T06:20:01.433Z,14.3
2023-05-21T06:21:01.025Z,14.3
2023-05-21T06:22:00.688Z,14.4
2023-05-21T06:23:01.178Z,14.5
2023-05-21T06:24:00.761Z,14.4
2023-05-21T06:25:01.364Z,14.3
2023-05-21T06:26:00.979Z,14.5
2023-05-21T06:27:01.533Z,14.6
2023-05-21T06:28:01.118Z,14.7
2023-05-21T06:29:00.829Z,14.7
2023-05-21T06:30:01.304Z,14.6
2023-05-21T06:31:00.898Z,14.6
2023-05-21T06:32:01.495Z,14.7
2023-05-21T06:33:01.108Z,14.8
2023-05-21T06:34:00.908Z,14.8
2023-05-21T06:35:01.254Z,14.8
2023-05-21T06:36:00.843Z,14.8
2023-05-21T06:37:01.445Z,14.9
2023-05-21T06:38:01.042Z,15
2023-05-21T06:39:01.628Z,15
2023-05-21T06:40:01.242Z,15.1
2023-05-21T06:41:00.852Z,15.2
2023-05-21T06:42:01.445Z,15.2
2023-05-21T06:43:01.046Z,15.4
2023-05-21T06:44:01.643Z,15.4
2023-05-21T06:45:01.261Z,15.5
2023-05-21T06:46:00.917Z,15.6
2023-05-21T06:47:01.449Z,15.6
2023-05-21T06:48:01.060Z,15.6
2023-05-21T06:49:01.616Z,15.5
2023-05-21T06:50:01.215Z,15.7
2023-05-21T06:51:00.853Z,15.6
2023-05-21T06:52:01.377Z,15.7
2023-05-21T06:53:00.969Z,15.7
2023-05-21T06:54:01.553Z,15.7
2023-05-21T06:55:01.172Z,15.5
2023-05-21T06:56:00.775Z,15.5
2023-05-21T06:57:01.344Z,15.6
2023-05-21T06:58:00.925Z,15.6
2023-05-21T06:59:01.511Z,15.5
2023-05-21T07:00:01.114Z,15.5
2023-05-21T07:01:00.817Z,15.5
2023-05-21T07:02:03.101Z,15.6
2023-05-21T07:03:00.882Z,15.6
2023-05-21T07:04:01.512Z,15.5
2023-05-21T07:05:01.117Z,15.6
2023-05-21T07:06:00.700Z,15.8
2023-05-21T07:07:01.273Z,15.9
2023-05-21T07:08:00.851Z,16
2023-05-21T07:09:01.426Z,16
2023-05-21T07:10:01.054Z,16.1
2023-05-21T07:11:01.648Z,16.2
2023-05-21T07:12:01.265Z,16.3
2023-05-21T07:13:00.870Z,16.2
2023-05-21T07:14:01.452Z,16.2
2023-05-21T07:15:01.049Z,16.1
2023-05-21T07:16:01.668Z,16.1
2023-05-21T07:17:01.372Z,16.1
2023-05-21T07:18:00.874Z,16.2
2023-05-21T07:19:01.506Z,16.3
2023-05-21T07:20:01.107Z,16.3
2023-05-21T07:21:00.703Z,16.4
2023-05-21T07:22:01.289Z,16.4
2023-05-21T07:23:00.996Z,16.3
2023-05-21T07:24:01.456Z,16.2
2023-05-21T07:25:01.045Z,16.3
2023-05-21T07:26:01.646Z,16.5
2023-05-21T07:27:03.144Z,16.4
2023-05-21T07:28:00.805Z,16.3
2023-05-21T07:29:01.393Z,16.4
2023-05-21T07:30:00.987Z,16.5
2023-05-21T07:31:01.595Z,16.6
2023-05-21T07:32:01.320Z,16.6
2023-05-21T07:33:00.837Z,16.6
2023-05-21T07:34:01.381Z,16.6
2023-05-21T07:35:00.964Z,16.6
2023-05-21T07:36:01.567Z,16.7
2023-05-21T07:37:01.185Z,16.6
2023-05-21T07:38:00.808Z,16.5
2023-05-21T07:39:01.327Z,16.6
2023-05-21T07:40:00.912Z,16.5
2023-05-21T07:41:01.487Z,16.5
2023-05-21T07:42:01.093Z,16.8
2023-05-21T07:43:00.646Z,16.8
2023-05-21T07:44:01.256Z,16.8
2023-05-21T07:45:00.843Z,17
2023-05-21T07:46:01.437Z,16.9
2023-05-21T07:47:01.037Z,16.9
2023-05-21T07:48:01.647Z,16.9
2023-05-21T07:49:01.443Z,16.9
2023-05-21T07:50:00.845Z,17
2023-05-21T07:51:01.423Z,17
2023-05-21T07:52:01.003Z,17.1
2023-05-21T07:53:01.655Z,17
2023-05-21T07:54:01.335Z,17.1
2023-05-21T07:55:00.821Z,17.3
2023-05-21T07:56:01.396Z,17.6
2023-05-21T07:57:00.987Z,17.7
2023-05-21T07:58:01.572Z,17.9
2023-05-21T07:59:01.172Z,17.8
2023-05-21T08:00:00.772Z,17.7
2023-05-21T08:01:01.332Z,17.8
2023-05-21T08:02:00.930Z,17.6
2023-05-21T08:03:01.581Z,17.5
2023-05-21T08:04:01.249Z,17.2
2023-05-21T08:05:00.803Z,17
2023-05-21T08:06:01.323Z,17.2
2023-05-21T08:07:00.901Z,17.2
2023-05-21T08:08:01.481Z,17.3
2023-05-21T08:09:01.062Z,17.1
2023-05-21T08:10:02.758Z,17.1
2023-05-21T08:11:01.554Z,17.5
2023-05-21T08:12:00.890Z,17.6
2023-05-21T08:13:01.485Z,17.7
2023-05-21T08:14:01.090Z,17.6
2023-05-21T08:15:00.660Z,17.7
2023-05-21T08:16:01.267Z,17.5
2023-05-21T08:17:00.862Z,17.3
2023-05-21T08:18:01.469Z,17.3
2023-05-21T08:19:01.101Z,17.3
2023-05-21T08:20:00.670Z,17.4
2023-05-21T08:21:01.283Z,17.7
2023-05-21T08:22:00.881Z,17.7
2023-05-21T08:23:01.464Z,17.4
2023-05-21T08:24:01.168Z,17.5
2023-05-21T08:25:00.703Z,17.5
2023-05-21T08:26:01.253Z,17.4
2023-05-21T08:27:00.837Z,17.6
2023-05-21T08:28:01.425Z,17.6
2023-05-21T08:29:01.039Z,17.7
2023-05-21T08:30:01.633Z,17.9
2023-05-21T08:31:01.233Z,18.2
2023-05-21T08:32:00.865Z,18.3
2023-05-21T08:33:01.427Z,18.4
2023-05-21T08:34:01.049Z,18.2
2023-05-21T08:35:01.664Z,18.1
2023-05-21T08:36:01.248Z,18.2
2023-05-21T08:37:00.858Z,18.1
2023-05-21T08:38:01.414Z,18.3
2023-05-21T08:39:01.021Z,18.4
2023-05-21T08:40:01.607Z,18.5
2023-05-21T08:41:01.224Z,18.6
2023-05-21T08:42:00.810Z,18.5
2023-05-21T08:43:01.393Z,18.3
2023-05-21T08:44:01.010Z,18.4
2023-05-21T08:45:01.559Z,18.5
2023-05-21T08:46:01.152Z,18.7
2023-05-21T08:47:00.785Z,18.7
2023-05-21T08:48:01.329Z,18.6
2023-05-21T08:49:00.939Z,18.6
2023-05-21T08:50:01.510Z,18.8
2023-05-21T08:51:01.163Z,18.9
2023-05-21T08:52:00.679Z,19
2023-05-21T08:53:01.435Z,19.3
2023-05-21T08:54:01.474Z,19.4
2023-05-21T08:55:01.063Z,19.5
2023-05-21T08:56:01.646Z,19.5
2023-05-21T08:57:00.773Z,19.5
2023-05-21T08:58:01.324Z,19.4
2023-05-21T08:59:00.912Z,19.5
2023-05-21T09:00:01.489Z,19.4
2023-05-21T09:01:01.106Z,19.5
2023-05-21T09:02:00.716Z,19.6
2023-05-21T09:03:01.312Z,19.5
2023-05-21T09:04:08.609Z,19.5
2023-05-21T09:05:01.430Z,19.4
2023-05-21T09:06:01.023Z,19.3
2023-05-21T09:07:01.623Z,19.1
2023-05-21T09:08:01.227Z,19.4
2023-05-21T09:09:00.941Z,19.5
2023-05-21T09:10:01.400Z,19.5
2023-05-21T09:11:00.989Z,19.6
2023-05-21T09:12:01.585Z,19.7
2023-05-21T09:13:01.177Z,19.7
2023-05-21T09:14:00.782Z,19.7
2023-05-21T09:15:01.371Z,19.6
2023-05-21T09:16:00.967Z,19.4
2023-05-21T09:17:01.678Z,19.6
2023-05-21T09:18:01.228Z,19.6
2023-05-21T09:19:03.049Z,19.4
2023-05-21T09:20:01.356Z,19.1
2023-05-21T09:21:00.942Z,19.5
2023-05-21T09:22:01.534Z,19.5
2023-05-21T09:23:01.116Z,19.7
2023-05-21T09:24:00.820Z,19.7
2023-05-21T09:25:01.334Z,19.7
2023-05-21T09:26:00.933Z,19.7
2023-05-21T09:27:01.519Z,19.8
2023-05-21T09:28:01.106Z,19.5
2023-05-21T09:29:00.700Z,19.3
2023-05-21T09:30:01.296Z,19.1
2023-05-21T09:31:00.937Z,19.1
2023-05-21T09:32:01.470Z,19.1
2023-05-21T09:33:01.071Z,19.3
2023-05-21T09:34:01.654Z,19.6
2023-05-21T09:35:01.267Z,19.6
2023-05-21T09:36:00.865Z,19.6
2023-05-21T09:37:01.434Z,19.6
2023-05-21T09:38:01.020Z,19.8
2023-05-21T09:39:01.592Z,19.7
2023-05-21T09:40:01.197Z,19.8
2023-05-21T09:41:00.836Z,19.6
2023-05-21T09:42:01.440Z,19.8
2023-05-21T09:43:01.050Z,20.1
2023-05-21T09:44:01.625Z,20
2023-05-21T09:45:01.225Z,20.1
2023-05-21T09:46:02.074Z,20
2023-05-21T09:47:00.924Z,20.1
2023-05-21T09:48:01.637Z,19.9
2023-05-21T09:49:01.230Z,19.9
2023-05-21T09:50:00.831Z,19.8
2023-05-21T09:51:01.401Z,20.1
2023-05-21T09:52:01.022Z,19.8
2023-05-21T09:53:01.571Z,19.9
2023-05-21T09:54:01.206Z,20
2023-05-21T09:55:00.736Z,19.8
2023-05-21T09:56:01.340Z,19.7
2023-05-21T09:57:01.012Z,19.9
2023-05-21T09:58:01.569Z,20.2
2023-05-21T09:59:01.158Z,20.2
2023-05-21T10:00:00.737Z,20.2
2023-05-21T10:01:01.349Z,20.1
2023-05-21T10:02:00.991Z,19.8
2023-05-21T10:03:01.559Z,20
2023-05-21T10:04:01.189Z,19.9
2023-05-21T10:05:00.752Z,19.7
2023-05-21T10:06:01.350Z,19.7
2023-05-21T10:07:01.016Z,19.8
2023-05-21T10:08:01.886Z,20
2023-05-21T10:09:03.221Z,20
2023-05-21T10:10:00.799Z,20
2023-05-21T10:11:01.401Z,20.2
2023-05-21T10:12:01.000Z,20.1
2023-05-21T10:13:01.599Z,20.1
2023-05-21T10:14:01.192Z,20.2
2023-05-21T10:15:00.752Z,20.5
2023-05-21T10:16:01.375Z,20.6
2023-05-21T10:17:01.014Z,20.5
2023-05-21T10:18:01.600Z,20.3
2023-05-21T10:19:01.356Z,20.5
2023-05-21T10:20:00.825Z,20.7
2023-05-21T10:21:01.416Z,20.9
2023-05-21T10:22:01.043Z,20.9
2023-05-21T10:23:01.610Z,20.8
2023-05-21T10:24:01.200Z,20.6
2023-05-21T10:25:00.943Z,20.9
2023-05-21T10:26:01.384Z,21.1
2023-05-21T10:27:00.978Z,21.1
2023-05-21T10:28:01.548Z,21
2023-05-21T10:29:01.219Z,20.8
2023-05-21T10:30:00.711Z,20.8
2023-05-21T10:31:01.294Z,20.8
2023-05-21T10:32:00.905Z,21
2023-05-21T10:33:01.566Z,21.1
2023-05-21T10:34:01.148Z,21.3
2023-05-21T10:35:01.570Z,21.4
2023-05-21T10:36:01.450Z,21.5
2023-05-21T10:37:00.958Z,21.2
2023-05-21T10:38:01.544Z,21
2023-05-21T10:39:01.135Z,21
2023-05-21T10:40:00.720Z,21.3
2023-05-21T10:41:01.318Z,21.1
2023-05-21T10:42:00.900Z,21.3
2023-05-21T10:43:01.499Z,21.3
2023-05-21T10:44:01.082Z,21.3
2023-05-21T10:45:01.693Z,21.3
2023-05-21T10:46:01.318Z,21.4
2023-05-21T10:47:00.948Z,21.3
2023-05-21T10:48:01.506Z,21.4
2023-05-21T10:49:01.138Z,21.3
2023-05-21T10:50:00.720Z,21.1
2023-05-21T10:51:01.299Z,21.2
2023-05-21T10:52:00.894Z,21.4
2023-05-21T10:53:01.464Z,21.3
2023-05-21T10:54:01.050Z,21.3
2023-05-21T10:55:01.626Z,21.5
2023-05-21T10:56:01.217Z,21.8
2023-05-21T10:57:00.826Z,21.9
2023-05-21T10:58:01.415Z,21.7
2023-05-21T10:59:01.019Z,21.3
2023-05-21T11:00:01.599Z,21.3
2023-05-21T11:01:01.241Z,21.3
2023-05-21T11:02:00.797Z,21.3
2023-05-21T11:03:01.446Z,21.6
2023-05-21T11:04:01.081Z,21.7
2023-05-21T11:05:01.607Z,21.5
2023-05-21T11:06:01.196Z,21.5
2023-05-21T11:07:00.787Z,21.5
2023-05-21T11:08:01.394Z,21.5
2023-05-21T11:09:01.070Z,21.1
2023-05-21T11:10:01.574Z,21.6
2023-05-21T11:11:01.157Z,21.5
2023-05-21T11:12:00.765Z,21.4
2023-05-21T11:13:01.347Z,21.5
2023-05-21T11:14:00.923Z,21.6
2023-05-21T11:15:01.533Z,21.4
2023-05-21T11:16:01.118Z,21.3
2023-05-21T11:17:00.753Z,21.5
2023-05-21T11:18:01.318Z,21.4
2023-05-21T11:19:00.994Z,21.3
2023-05-21T11:20:01.543Z,21.3
2023-05-21T11:21:01.186Z,21.3
2023-05-21T11:22:00.762Z,21.2
2023-05-21T11:23:01.368Z,21.3
2023-05-21T11:24:01.001Z,21.4
2023-05-21T11:25:01.560Z,21.5
2023-05-21T11:26:01.290Z,21.4
2023-05-21T11:27:00.758Z,21.7
2023-05-21T11:28:01.342Z,21.9
2023-05-21T11:29:00.954Z,22.1
2023-05-21T11:30:01.526Z,22.3
2023-05-21T11:31:01.136Z,22.1
2023-05-21T11:32:01.699Z,22.1
2023-05-21T11:33:01.366Z,22.2
2023-05-21T11:34:00.958Z,22.5
2023-05-21T11:35:01.500Z,22.6
2023-05-21T11:36:01.099Z,22.5
2023-05-21T11:37:01.682Z,22.5
2023-05-21T11:38:01.269Z,22.3
2023-05-21T11:39:00.870Z,22.3
2023-05-21T11:40:01.434Z,22.6
2023-05-21T11:41:01.047Z,22.6
2023-05-21T11:42:03.988Z,22.4
2023-05-21T11:43:01.145Z,21.9
2023-05-21T11:44:00.746Z,21.8
2023-05-21T11:45:01.320Z,22
2023-05-21T11:46:00.950Z,22.3
2023-05-21T11:47:01.569Z,22.4
2023-05-21T11:48:01.205Z,22.6
2023-05-21T11:49:00.761Z,22.8
2023-05-21T11:50:01.343Z,22.7
2023-05-21T11:51:00.978Z,22.8
2023-05-21T11:52:01.558Z,22.7
2023-05-21T11:53:01.144Z,22.8
2023-05-21T11:54:00.725Z,22.8
2023-05-21T11:55:01.321Z,22.5
2023-05-21T11:56:00.944Z,22.5
2023-05-21T11:57:01.511Z,22.7
2023-05-21T11:58:01.112Z,22.9
2023-05-21T11:59:01.671Z,22.9
2023-05-21T12:00:01.681Z,23
2023-05-21T12:01:00.934Z,22.5
2023-05-21T12:02:01.511Z,22.7
2023-05-21T12:03:01.212Z,22.9
2023-05-21T12:04:01.757Z,23
2023-05-21T12:05:01.492Z,22.7
2023-05-21T12:06:00.972Z,22.9
2023-05-21T12:07:01.524Z,22.8
2023-05-21T12:08:01.123Z,23
2023-05-21T12:09:01.690Z,23.4
2023-05-21T12:10:01.395Z,23.6
2023-05-21T12:11:00.953Z,23.5
2023-05-21T12:12:01.514Z,23.7
2023-05-21T12:13:01.158Z,23.7
2023-05-21T12:14:01.705Z,23.7
2023-05-21T12:15:01.313Z,23.7
2023-05-21T12:16:00.957Z,23.7
2023-05-21T12:17:01.494Z,23.4
2023-05-21T12:18:01.267Z,23.1
2023-05-21T12:19:01.732Z,23.1
2023-05-21T12:20:01.355Z,23.2
2023-05-21T12:21:01.036Z,23.2
2023-05-21T12:22:01.526Z,23.6
2023-05-21T12:23:01.141Z,23.4
2023-05-21T12:24:01.698Z,23.8
2023-05-21T12:25:01.302Z,23.5
2023-05-21T12:26:00.997Z,23.5
2023-05-21T12:27:01.483Z,23.4
2023-05-21T12:28:01.086Z,23.3
2023-05-21T12:29:01.642Z,23.2
2023-05-21T12:30:01.249Z,23.2
2023-05-21T12:31:00.834Z,22.9
2023-05-21T12:32:01.453Z,22.7
2023-05-21T12:33:01.084Z,22.7
2023-05-21T12:34:01.668Z,22.8
2023-05-21T12:35:01.377Z,22.6
2023-05-21T12:36:00.902Z,22.5
2023-05-21T12:37:01.512Z,22.7
2023-05-21T12:38:01.141Z,22.7
2023-05-21T12:39:01.689Z,22.6
2023-05-21T12:40:01.309Z,22.5
2023-05-21T12:41:00.917Z,22.9
2023-05-21T12:42:01.492Z,23.1
2023-05-21T12:43:01.079Z,23.3
2023-05-21T12:44:01.736Z,23.6
2023-05-21T12:45:01.330Z,23.6
2023-05-21T12:46:00.935Z,23.5
2023-05-21T12:47:01.495Z,23.3
2023-05-21T12:48:01.188Z,23.7
2023-05-21T12:49:01.673Z,23.7
2023-05-21T12:50:01.256Z,23.5
2023-05-21T12:51:00.862Z,23.6
2023-05-21T12:52:01.423Z,23.6
2023-05-21T12:53:01.028Z,23.8
2023-05-21T12:54:01.614Z,23.7
2023-05-21T12:55:01.223Z,23.3
2023-05-21T12:56:00.811Z,23.2
2023-05-21T12:57:01.368Z,22.9
2023-05-21T12:58:00.968Z,22.9
2023-05-21T12:59:01.540Z,23.3
2023-05-21T13:00:01.176Z,23.4
2023-05-21T13:01:03.846Z,23.5
2023-05-21T13:02:01.313Z,23.6
2023-05-21T13:03:00.978Z,23.5
2023-05-21T13:04:01.541Z,23.6
2023-05-21T13:05:01.152Z,23.6
2023-05-21T13:06:01.744Z,23.8
2023-05-21T13:07:02.886Z,23.6
2023-05-21T13:08:00.870Z,23.5
2023-05-21T13:09:01.488Z,23.7
2023-05-21T13:10:01.128Z,23.6
2023-05-21T13:11:01.722Z,23.7
2023-05-21T13:12:01.307Z,23.7
2023-05-21T13:13:00.906Z,23.6
2023-05-21T13:14:01.502Z,23.9
2023-05-21T13:15:01.152Z,24.5
2023-05-21T13:16:01.750Z,24.4
2023-05-21T13:17:01.386Z,24.4
2023-05-21T13:18:01.194Z,24.5
2023-05-21T13:19:01.599Z,24.8
2023-05-21T13:20:01.197Z,25
2023-05-21T13:21:00.789Z,24.8
2023-05-21T13:22:01.375Z,24.7